Time;durP1;ratioP1;P1;durP2;ratioP2;P2;SDS_P1;SDS_P2;PMS_P1;PMS_P2;Temp;Humidity;BMP_temperature;BMP_pressure;BME280_temperature;BME280_humidity;BME280_pressure;Samples;Min_cycle;Max_cycle;Signal;HPM_P1;HPM_P2
2022/03/20 00:00:50;;;;;;;2.27;2.00;;;18.50;35.20;;;;;;5037750;28;20474;-55
2022/03/20 00:03:15;;;;;;;2.73;2.53;;;18.50;35.20;;;;;;5040424;28;20223;-55
2022/03/20 00:05:42;;;;;;;3.80;2.97;;;18.50;35.20;;;;;;5038432;28;20449;-56
2022/03/20 00:08:11;;;;;;;2.43;2.33;;;18.50;35.20;;;;;;5035416;28;20278;-55
2022/03/20 00:10:42;;;;;;;2.67;2.47;;;18.50;35.30;;;;;;5039317;28;20425;-56
2022/03/20 00:13:09;;;;;;;2.30;2.17;;;18.50;35.20;;;;;;5038947;28;20442;-56
2022/03/20 00:15:36;;;;;;;2.97;2.67;;;18.50;35.20;;;;;;5036068;28;20430;-56
2022/03/20 00:18:03;;;;;;;2.90;2.70;;;18.50;35.30;;;;;;5042403;28;20455;-56
2022/03/20 00:20:37;;;;;;;3.50;2.83;;;18.50;35.20;;;;;;5048566;28;21352;-56
2022/03/20 00:23:07;;;;;;;2.60;2.40;;;18.50;35.20;;;;;;5045848;28;20533;-55
2022/03/20 00:25:42;;;;;;;2.80;2.60;;;18.50;35.20;;;;;;5042391;28;20918;-56
2022/03/20 00:28:08;;;;;;;2.50;2.30;;;18.50;35.30;;;;;;5039647;28;21050;-56
2022/03/20 00:30:34;;;;;;;2.90;2.70;;;18.50;35.30;;;;;;5038239;28;20471;-55
2022/03/20 00:33:00;;;;;;;2.73;2.53;;;18.50;35.30;;;;;;5039372;28;20430;-55
2022/03/20 00:35:25;;;;;;;2.90;2.57;;;18.50;35.30;;;;;;5040274;28;20705;-57
2022/03/20 00:37:51;;;;;;;3.30;3.13;;;18.50;35.30;;;;;;5038867;28;20238;-57
2022/03/20 00:40:17;;;;;;;3.10;2.90;;;18.50;35.30;;;;;;5045629;28;20234;-56
2022/03/20 00:42:42;;;;;;;3.27;3.07;;;18.50;35.30;;;;;;5041564;28;20671;-56
2022/03/20 00:45:08;;;;;;;3.10;2.90;;;18.50;35.30;;;;;;5044260;28;20230;-57
2022/03/20 00:47:34;;;;;;;3.20;3.00;;;18.50;35.30;;;;;;5039676;28;20226;-57
2022/03/20 00:50:00;;;;;;;3.30;3.10;;;18.50;35.30;;;;;;5037627;28;20219;-57
2022/03/20 00:52:25;;;;;;;6.87;3.17;;;18.50;35.30;;;;;;5041824;28;20368;-56
2022/03/20 00:54:51;;;;;;;3.03;2.83;;;18.50;35.30;;;;;;5038284;28;20230;-56
2022/03/20 00:57:17;;;;;;;3.10;2.90;;;18.50;35.30;;;;;;5037085;28;20942;-56
2022/03/20 00:59:42;;;;;;;2.80;2.70;;;18.50;35.30;;;;;;5040519;28;20215;-56
2022/03/20 01:02:08;;;;;;;4.10;3.70;;;18.50;35.20;;;;;;5039619;28;20272;-56
2022/03/20 01:04:35;;;;;;;2.87;2.67;;;18.50;35.30;;;;;;5041466;28;20394;-56
2022/03/20 01:07:02;;;;;;;3.40;3.20;;;18.50;35.30;;;;;;5041604;28;20314;-56
2022/03/20 01:09:31;;;;;;;3.30;3.10;;;18.50;35.30;;;;;;5039612;28;21095;-56
2022/03/20 01:11:58;;;;;;;3.30;2.93;;;18.50;35.20;;;;;;5040770;28;20444;-56
2022/03/20 01:14:25;;;;;;;2.87;2.67;;;18.50;35.30;;;;;;5042176;28;20430;-56
2022/03/20 01:16:51;;;;;;;3.17;2.97;;;18.50;35.30;;;;;;5045572;28;20449;-56
2022/03/20 01:19:17;;;;;;;2.83;2.63;;;18.50;35.20;;;;;;5042904;28;20452;-56
2022/03/20 01:21:42;;;;;;;3.20;3.00;;;18.50;35.30;;;;;;5045787;28;20476;-56
2022/03/20 01:24:08;;;;;;;2.77;2.67;;;18.50;35.30;;;;;;5037313;28;20660;-56
2022/03/20 01:26:35;;;;;;;3.20;2.90;;;18.50;35.30;;;;;;5040655;28;20229;-56
2022/03/20 01:29:02;;;;;;;2.93;2.73;;;18.40;35.20;;;;;;5042779;28;20227;-56
2022/03/20 01:31:28;;;;;;;2.80;2.60;;;18.50;35.30;;;;;;5045780;28;20466;-56
2022/03/20 01:33:54;;;;;;;3.20;3.00;;;18.50;35.30;;;;;;5040330;28;20794;-56
2022/03/20 01:36:21;;;;;;;3.47;3.27;;;18.40;35.20;;;;;;5041717;28;20625;-56
2022/03/20 01:38:47;;;;;;;4.03;3.73;;;18.50;35.40;;;;;;5039528;28;20502;-55
2022/03/20 01:41:13;;;;;;;3.77;3.47;;;18.50;35.30;;;;;;5042166;28;20422;-56
2022/03/20 01:43:47;;;;;;;3.17;2.97;;;18.40;35.30;;;;;;5042082;28;20471;-56
2022/03/20 01:46:13;;;;;;;3.63;3.43;;;18.40;35.20;;;;;;5043224;28;20428;-56
2022/03/20 01:48:38;;;;;;;3.60;3.40;;;18.40;35.30;;;;;;5040421;28;20423;-56
2022/03/20 01:51:04;;;;;;;3.73;3.50;;;18.40;35.30;;;;;;5038219;28;20264;-56
2022/03/20 01:53:29;;;;;;;3.37;3.17;;;18.50;35.40;;;;;;5038389;28;20222;-56
2022/03/20 01:55:56;;;;;;;3.03;2.83;;;18.40;35.60;;;;;;5040349;28;20629;-56
2022/03/20 01:58:22;;;;;;;3.33;3.13;;;18.40;35.30;;;;;;5041250;28;20243;-56
2022/03/20 02:00:47;;;;;;;3.57;3.27;;;18.40;35.30;;;;;;5038362;28;20450;-56
2022/03/20 02:03:13;;;;;;;3.60;3.40;;;18.40;35.30;;;;;;5038065;28;20239;-56
2022/03/20 02:05:41;;;;;;;3.47;3.27;;;18.40;35.30;;;;;;5038559;28;20242;-55
2022/03/20 02:08:08;;;;;;;3.50;3.20;;;18.40;35.30;;;;;;5041112;28;21909;-56
2022/03/20 02:10:37;;;;;;;3.40;3.20;;;18.40;35.30;;;;;;5038519;28;20423;-56
2022/03/20 02:13:05;;;;;;;3.30;3.10;;;18.40;35.30;;;;;;5041764;28;20998;-56
2022/03/20 02:15:31;;;;;;;3.40;3.20;;;18.40;35.30;;;;;;5042028;28;20483;-55
2022/03/20 02:17:57;;;;;;;3.33;3.03;;;18.40;35.30;;;;;;5041015;28;20430;-56
2022/03/20 02:20:22;;;;;;;4.07;3.87;;;18.40;35.30;;;;;;5037092;28;20419;-55
2022/03/20 02:22:48;;;;;;;3.50;3.30;;;18.40;35.40;;;;;;5041957;28;20426;-56
2022/03/20 02:25:16;;;;;;;3.63;3.43;;;18.40;35.40;;;;;;5038734;28;20263;-56
2022/03/20 02:27:44;;;;;;;4.30;4.10;;;18.40;35.40;;;;;;5039046;28;20731;-56
2022/03/20 02:30:15;;;;;;;3.90;3.63;;;18.40;35.40;;;;;;5041710;28;20427;-56
2022/03/20 02:32:52;;;;;;;3.57;3.37;;;18.40;35.30;;;;;;5040031;28;20497;-55
2022/03/20 02:35:18;;;;;;;4.60;4.30;;;18.40;35.30;;;;;;5036000;28;20418;-58
2022/03/20 02:37:47;;;;;;;3.53;3.30;;;18.40;35.40;;;;;;5039147;28;20430;-55
2022/03/20 02:40:16;;;;;;;3.60;3.40;;;18.40;35.40;;;;;;5036546;28;20439;-56
2022/03/20 02:42:44;;;;;;;3.80;3.50;;;18.40;35.50;;;;;;5037200;28;20446;-56
2022/03/20 02:45:12;;;;;;;3.70;3.50;;;18.40;35.40;;;;;;5039407;28;20439;-56
2022/03/20 02:47:39;;;;;;;3.93;3.63;;;18.40;35.40;;;;;;5037331;28;20441;-55
2022/03/20 02:50:11;;;;;;;4.07;3.77;;;18.40;35.40;;;;;;5038884;28;20426;-55
2022/03/20 02:52:48;;;;;;;3.40;3.20;;;18.40;35.50;;;;;;5042978;28;21405;-55
2022/03/20 02:55:36;;;;;;;4.30;4.10;;;18.40;36.20;;;;;;5038012;28;20441;-55
2022/03/20 02:58:05;;;;;;;4.20;3.90;;;18.40;35.40;;;;;;5039501;28;20449;-56
2022/03/20 03:00:32;;;;;;;3.80;3.60;;;18.40;35.40;;;;;;5035051;28;20478;-55
2022/03/20 03:03:00;;;;;;;4.13;3.93;;;18.40;35.50;;;;;;5037676;28;20782;-55
2022/03/20 03:05:28;;;;;;;3.63;3.43;;;18.40;35.50;;;;;;5037142;28;20538;-55
2022/03/20 03:10:57;;;;;;;3.90;3.70;;;18.40;36.20;;;;;;5039614;28;20428;-55
2022/03/20 03:13:36;;;;;;;3.97;3.77;;;18.40;35.50;;;;;;5042690;28;20435;-55
2022/03/20 03:16:04;;;;;;;3.83;3.63;;;18.40;35.50;;;;;;5038083;28;20492;-55
2022/03/20 03:18:30;;;;;;;4.53;4.23;;;18.40;35.50;;;;;;5038596;28;20961;-55
2022/03/20 03:20:56;;;;;;;3.90;3.60;;;18.40;35.50;;;;;;5037357;28;20501;-56
2022/03/20 03:23:24;;;;;;;4.13;3.93;;;18.40;35.50;;;;;;5041288;28;20281;-55
2022/03/20 03:25:50;;;;;;;3.80;3.60;;;18.40;35.50;;;;;;5038592;28;21015;-56
2022/03/20 03:28:16;;;;;;;3.60;3.40;;;18.40;35.50;;;;;;5035645;28;20411;-58
2022/03/20 03:30:45;;;;;;;3.83;3.53;;;18.40;35.50;;;;;;5043113;28;20223;-58
2022/03/20 03:33:11;;;;;;;4.23;4.03;;;18.40;35.50;;;;;;5041586;28;20233;-57
2022/03/20 03:35:44;;;;;;;3.50;3.30;;;18.40;35.50;;;;;;5040662;28;20903;-57
2022/03/20 03:38:16;;;;;;;4.10;3.90;;;18.40;35.50;;;;;;5037780;28;20798;-58
2022/03/20 03:40:44;;;;;;;3.60;3.40;;;18.40;35.50;;;;;;5037594;28;20503;-58
2022/03/20 03:43:10;;;;;;;4.40;4.13;;;18.40;35.50;;;;;;5037072;28;20418;-57
2022/03/20 03:45:39;;;;;;;3.60;3.40;;;18.40;35.50;;;;;;5037194;28;20447;-57
2022/03/20 03:48:05;;;;;;;4.10;3.90;;;18.40;35.40;;;;;;5040227;28;20484;-57
2022/03/20 03:50:31;;;;;;;4.20;3.80;;;18.40;35.40;;;;;;5032671;28;20437;-57
2022/03/20 03:52:56;;;;;;;3.63;3.43;;;18.40;35.30;;;;;;5038067;28;20431;-57
2022/03/20 03:55:22;;;;;;;3.90;3.70;;;18.40;35.30;;;;;;5038425;28;20225;-57
2022/03/20 03:57:50;;;;;;;4.30;4.10;;;18.40;35.30;;;;;;5035585;28;20608;-58
2022/03/20 04:00:18;;;;;;;4.20;4.00;;;18.40;36.10;;;;;;5040824;28;20219;-57
2022/03/20 04:02:44;;;;;;;3.97;3.77;;;18.40;35.30;;;;;;5039688;28;21071;-57
2022/03/20 04:05:17;;;;;;;4.43;4.23;;;18.40;35.30;;;;;;5042076;28;20854;-57
2022/03/20 04:07:47;;;;;;;4.60;4.40;;;18.40;35.30;;;;;;5039520;28;20437;-57
2022/03/20 04:10:14;;;;;;;4.30;4.10;;;18.40;35.30;;;;;;5036553;28;20542;-57
2022/03/20 04:12:46;;;;;;;4.60;4.23;;;18.40;35.30;;;;;;5040053;28;20439;-58
2022/03/20 04:15:13;;;;;;;4.13;3.93;;;18.40;35.30;;;;;;5036905;28;20433;-56
2022/03/20 04:17:39;;;;;;;4.03;3.83;;;18.40;35.30;;;;;;5038237;28;20879;-57
2022/03/20 04:20:06;;;;;;;3.80;3.47;;;18.40;35.30;;;;;;5036843;28;20441;-56
2022/03/20 04:22:33;;;;;;;4.43;4.10;;;18.40;35.30;;;;;;5039157;28;20272;-57
2022/03/20 04:24:59;;;;;;;4.23;4.03;;;18.40;35.30;;;;;;5038720;28;20466;-57
2022/03/20 04:27:25;;;;;;;4.97;4.57;;;18.40;35.40;;;;;;5039463;28;20537;-57
2022/03/20 04:29:53;;;;;;;3.63;3.43;;;18.40;35.30;;;;;;5032727;28;20223;-57
2022/03/20 04:32:19;;;;;;;4.57;4.27;;;18.40;35.30;;;;;;5040577;28;20823;-57
2022/03/20 04:34:44;;;;;;;4.00;3.60;;;18.40;35.30;;;;;;5037235;28;20419;-57
2022/03/20 04:37:11;;;;;;;4.00;3.80;;;18.40;35.30;;;;;;5036380;28;20233;-57
2022/03/20 04:39:37;;;;;;;4.17;3.97;;;18.40;35.30;;;;;;5039522;28;20260;-57
2022/03/20 04:42:04;;;;;;;4.13;3.90;;;18.40;35.30;;;;;;5033106;28;20542;-56
2022/03/20 04:44:30;;;;;;;4.43;3.70;;;18.40;35.30;;;;;;5037534;28;20457;-57
2022/03/20 04:46:56;;;;;;;4.37;4.07;;;18.40;35.30;;;;;;5035876;28;20464;-57
2022/03/20 05:00:20;;;;;;;4.20;4.00;;;18.40;35.40;;;;;;5037589;28;20442;-56
2022/03/20 05:02:46;;;;;;;4.33;4.03;;;18.40;35.40;;;;;;5042306;28;20467;-56
2022/03/20 05:05:12;;;;;;;3.93;3.70;;;18.40;35.40;;;;;;5040620;28;20459;-57
2022/03/20 05:07:37;;;;;;;4.30;4.00;;;18.40;35.40;;;;;;5046132;28;20347;-57
2022/03/20 05:15:33;;;;;;;4.13;3.87;;;18.40;35.40;;;;;;5039411;28;20495;-57
2022/03/20 05:17:58;;;;;;;5.00;4.70;;;18.40;35.30;;;;;;5039262;28;20430;-57
2022/03/20 05:20:25;;;;;;;4.33;4.13;;;18.40;35.30;;;;;;5038076;28;20231;-57
2022/03/20 05:22:51;;;;;;;5.17;4.77;;;18.40;35.30;;;;;;5042488;28;20222;-57
2022/03/20 05:25:18;;;;;;;5.20;4.90;;;18.40;35.30;;;;;;5044300;28;20432;-57
2022/03/20 05:27:44;;;;;;;4.70;4.40;;;18.40;35.30;;;;;;5042054;28;20611;-57
2022/03/20 05:30:10;;;;;;;4.77;4.47;;;18.40;36.10;;;;;;5046084;28;20945;-57
2022/03/20 05:32:37;;;;;;;5.33;4.97;;;18.40;35.20;;;;;;5042251;28;20430;-56
2022/03/20 05:35:11;;;;;;;4.33;4.03;;;18.40;35.20;;;;;;5037718;28;20523;-56
2022/03/20 05:37:37;;;;;;;4.47;4.17;;;18.40;35.20;;;;;;5039980;28;20786;-56
2022/03/20 05:40:03;;;;;;;4.90;4.60;;;18.40;35.20;;;;;;5040229;28;20934;-56
2022/03/20 05:42:29;;;;;;;4.70;4.50;;;18.40;35.10;;;;;;5041365;28;20582;-57
2022/03/20 05:44:55;;;;;;;4.57;4.27;;;18.50;35.20;;;;;;5041970;28;20443;-56
2022/03/20 05:47:21;;;;;;;4.57;4.20;;;18.40;35.10;;;;;;5040891;28;20222;-56
2022/03/20 05:49:46;;;;;;;5.00;4.70;;;18.50;35.20;;;;;;5037312;28;20227;-56
2022/03/20 05:52:13;;;;;;;4.50;4.20;;;18.50;35.20;;;;;;5042603;28;20637;-57
2022/03/20 05:54:39;;;;;;;4.80;4.50;;;18.40;35.10;;;;;;5037846;28;20588;-56
2022/03/20 05:59:53;;;;;;;4.43;4.13;;;18.50;35.10;;;;;;5037712;28;20253;-57
2022/03/20 06:02:19;;;;;;;4.50;4.30;;;18.50;35.10;;;;;;5039489;28;21054;-56
2022/03/20 06:04:45;;;;;;;4.00;3.80;;;18.50;35.10;;;;;;5041670;28;20475;-56
2022/03/20 06:07:11;;;;;;;4.67;4.40;;;18.50;35.10;;;;;;5042066;28;20509;-56
2022/03/20 06:09:37;;;;;;;3.93;3.73;;;18.50;35.10;;;;;;5037769;28;20219;-56
2022/03/20 06:12:03;;;;;;;4.60;4.23;;;18.50;35.10;;;;;;5038997;28;20223;-57
2022/03/20 06:14:29;;;;;;;4.73;4.40;;;18.50;35.10;;;;;;5040425;28;20470;-56
2022/03/20 06:16:54;;;;;;;4.67;4.47;;;18.50;35.10;;;;;;5043431;28;20444;-56
2022/03/20 06:19:20;;;;;;;5.83;4.50;;;18.50;35.10;;;;;;5043583;28;20249;-56
2022/03/20 06:21:47;;;;;;;4.57;4.17;;;18.50;35.90;;;;;;5041481;28;20210;-56
2022/03/20 06:24:12;;;;;;;4.80;4.50;;;18.50;35.10;;;;;;5042133;28;20219;-56
2022/03/20 06:26:38;;;;;;;4.60;4.30;;;18.50;35.10;;;;;;5038759;28;20434;-56
2022/03/20 06:29:05;;;;;;;4.53;4.33;;;18.50;35.10;;;;;;5042937;28;20689;-56
2022/03/20 06:31:31;;;;;;;4.03;3.83;;;18.50;35.00;;;;;;5038469;28;20221;-56
2022/03/20 06:33:58;;;;;;;4.27;4.07;;;18.50;35.00;;;;;;5043749;28;20437;-57
2022/03/20 06:36:25;;;;;;;4.50;4.20;;;18.50;35.10;;;;;;5036323;28;20899;-56
2022/03/20 06:38:50;;;;;;;4.87;4.57;;;18.50;35.00;;;;;;5040638;28;20434;-56
2022/03/20 06:41:18;;;;;;;4.90;4.60;;;18.50;35.10;;;;;;5035942;28;20468;-56
2022/03/20 06:43:43;;;;;;;3.97;3.73;;;18.50;35.00;;;;;;5042100;28;20218;-56
2022/03/20 06:46:09;;;;;;;4.43;4.13;;;18.50;35.00;;;;;;5037238;28;20799;-56
2022/03/20 06:48:34;;;;;;;5.23;4.83;;;18.50;35.00;;;;;;5041001;28;20229;-57
2022/03/20 06:51:01;;;;;;;4.63;4.33;;;18.50;35.00;;;;;;5037176;28;20381;-57
2022/03/20 06:53:27;;;;;;;4.27;4.03;;;18.50;35.00;;;;;;5037645;28;20774;-57
2022/03/20 06:55:53;;;;;;;4.90;4.50;;;18.50;35.00;;;;;;5039354;28;20546;-57
2022/03/20 06:58:21;;;;;;;4.63;4.23;;;18.50;35.00;;;;;;5039953;28;20222;-57
2022/03/20 07:00:46;;;;;;;4.40;4.20;;;18.50;35.00;;;;;;5042612;28;20430;-57
2022/03/20 07:03:12;;;;;;;4.27;3.87;;;18.50;35.00;;;;;;5040301;28;20450;-56
2022/03/20 07:05:39;;;;;;;4.77;4.47;;;18.50;34.90;;;;;;5040935;28;20320;-58
2022/03/20 07:08:05;;;;;;;4.30;3.90;;;18.60;35.00;;;;;;5041503;28;20944;-57
2022/03/20 07:10:31;;;;;;;4.20;3.90;;;18.50;34.90;;;;;;5037608;28;20418;-57
2022/03/20 07:15:44;;;;;;;4.93;4.63;;;18.60;35.00;;;;;;5035126;28;20442;-57
2022/03/20 07:18:10;;;;;;;4.90;4.50;;;18.50;34.80;;;;;;5039445;28;20976;-57
2022/03/20 07:20:42;;;;;;;4.63;4.33;;;18.50;34.80;;;;;;5044643;28;20419;-57
2022/03/20 07:23:09;;;;;;;4.83;4.53;;;18.50;34.80;;;;;;5038508;28;21394;-57
2022/03/20 07:31:04;;;;;;;4.27;4.07;;;18.50;34.80;;;;;;5036031;28;20518;-57
2022/03/20 07:33:30;;;;;;;4.97;4.53;;;18.50;34.80;;;;;;5038600;28;20875;-57
2022/03/20 07:35:55;;;;;;;4.60;4.30;;;18.50;34.80;;;;;;5039613;28;20688;-57
2022/03/20 07:38:21;;;;;;;4.57;4.27;;;18.50;34.80;;;;;;5043032;28;20214;-57
2022/03/20 07:40:46;;;;;;;4.87;4.57;;;18.60;34.80;;;;;;5038022;28;20234;-56
2022/03/20 07:43:12;;;;;;;4.60;4.30;;;18.60;34.80;;;;;;5039904;28;20268;-57
2022/03/20 07:45:38;;;;;;;3.90;3.70;;;18.60;34.80;;;;;;5037895;28;20292;-57
2022/03/20 07:48:04;;;;;;;4.40;4.03;;;18.60;34.80;;;;;;5035567;28;20231;-57
2022/03/20 07:50:29;;;;;;;4.53;4.13;;;18.60;34.70;;;;;;5036138;28;20223;-57
2022/03/20 07:52:59;;;;;;;5.23;4.90;;;18.60;34.70;;;;;;5040125;28;20227;-57
2022/03/20 07:55:27;;;;;;;5.90;5.40;;;18.60;34.70;;;;;;5036331;28;20219;-57
2022/03/20 07:57:53;;;;;;;7.50;6.77;;;18.60;34.70;;;;;;5039618;28;20556;-57
2022/03/20 08:00:19;;;;;;;6.50;6.10;;;18.60;34.70;;;;;;5037310;28;20427;-58
2022/03/20 08:02:45;;;;;;;6.50;6.10;;;18.60;34.60;;;;;;5040001;28;20411;-57
2022/03/20 08:05:11;;;;;;;6.77;6.27;;;18.60;34.50;;;;;;5039854;28;20475;-57
2022/03/20 08:07:38;;;;;;;7.57;6.30;;;18.60;34.50;;;;;;5038398;28;20422;-57
2022/03/20 08:10:08;;;;;;;6.93;6.33;;;18.60;34.30;;;;;;5038035;28;20225;-57
2022/03/20 08:12:34;;;;;;;5.67;5.27;;;18.60;34.20;;;;;;5036621;28;20771;-57
2022/03/20 08:15:01;;;;;;;6.03;5.67;;;18.60;34.20;;;;;;5035064;28;20510;-57
2022/03/20 08:17:28;;;;;;;6.40;5.90;;;18.60;34.20;;;;;;5041885;28;20854;-56
2022/03/20 08:19:54;;;;;;;5.90;5.50;;;18.60;34.10;;;;;;5038166;28;20455;-57
2022/03/20 08:22:20;;;;;;;6.37;5.97;;;18.60;34.10;;;;;;5040549;28;20420;-57
2022/03/20 08:24:47;;;;;;;6.40;5.90;;;18.60;34.10;;;;;;5037515;28;20226;-57
2022/03/20 08:27:12;;;;;;;6.00;5.60;;;18.60;34.10;;;;;;5037084;28;20222;-57
2022/03/20 08:29:38;;;;;;;6.13;5.73;;;18.60;34.10;;;;;;5032721;28;20787;-59
2022/03/20 08:32:05;;;;;;;6.00;5.60;;;18.60;34.20;;;;;;5023921;28;20703;-57
2022/03/20 08:34:31;;;;;;;6.07;5.67;;;18.60;34.10;;;;;;5037424;28;20318;-57
2022/03/20 08:36:56;;;;;;;6.43;5.93;;;18.60;34.10;;;;;;5039466;28;20523;-57
2022/03/20 08:39:22;;;;;;;6.23;5.70;;;18.60;34.00;;;;;;5040363;28;20231;-58
2022/03/20 08:41:48;;;;;;;5.97;5.50;;;18.60;34.10;;;;;;5041119;28;20338;-58
2022/03/20 08:44:14;;;;;;;6.83;6.33;;;18.60;34.10;;;;;;5039384;28;20229;-57
2022/03/20 08:46:40;;;;;;;5.80;5.30;;;18.60;34.10;;;;;;5041350;28;20230;-57
2022/03/20 08:49:07;;;;;;;7.27;6.17;;;18.60;34.10;;;;;;5043217;28;20214;-57
2022/03/20 08:51:34;;;;;;;6.40;6.00;;;18.60;34.10;;;;;;5041874;28;20437;-57
2022/03/20 08:54:01;;;;;;;7.10;6.43;;;18.60;34.10;;;;;;5039687;28;20469;-57
2022/03/20 08:56:27;;;;;;;6.00;5.50;;;18.60;34.10;;;;;;5043195;28;20434;-57
2022/03/20 08:58:53;;;;;;;6.50;6.00;;;18.60;34.10;;;;;;5041143;28;20537;-57
2022/03/20 09:01:19;;;;;;;6.70;6.30;;;18.60;34.10;;;;;;5041538;28;20910;-58
2022/03/20 09:03:49;;;;;;;6.50;6.00;;;18.60;34.10;;;;;;5040141;28;20231;-57
2022/03/20 09:06:21;;;;;;;7.00;5.57;;;18.60;34.10;;;;;;5040492;28;20431;-58
2022/03/20 09:08:48;;;;;;;6.77;6.27;;;18.60;34.10;;;;;;5041491;28;20439;-57
2022/03/20 09:11:14;;;;;;;6.10;5.70;;;18.60;34.10;;;;;;5041259;28;20805;-58
2022/03/20 09:13:39;;;;;;;6.23;5.80;;;18.60;34.10;;;;;;5041411;28;20438;-57
2022/03/20 09:18:59;;;;;;;6.30;5.90;;;18.60;34.10;;;;;;5041346;28;20238;-59
2022/03/20 09:21:28;;;;;;;7.50;6.10;;;18.60;34.00;;;;;;5043481;28;20446;-58
2022/03/20 09:23:54;;;;;;;7.07;6.47;;;18.60;34.10;;;;;;5040340;28;20521;-58
2022/03/20 09:26:20;;;;;;;9.50;6.17;;;18.60;34.10;;;;;;5037570;28;20522;-58
2022/03/20 09:28:46;;;;;;;5.67;5.27;;;18.60;34.10;;;;;;5039593;28;20488;-57
2022/03/20 09:31:13;;;;;;;6.20;5.80;;;18.60;34.10;;;;;;5040842;28;20739;-59
2022/03/20 09:33:40;;;;;;;5.70;5.30;;;18.60;34.10;;;;;;5044744;28;20443;-58
2022/03/20 09:36:06;;;;;;;6.77;6.27;;;18.60;34.10;;;;;;5038254;28;20820;-58
2022/03/20 09:38:32;;;;;;;6.63;6.00;;;18.60;34.20;;;;;;5039672;28;20459;-57
2022/03/20 09:41:03;;;;;;;5.97;5.57;;;18.60;34.20;;;;;;5041310;28;20483;-57
2022/03/20 09:43:30;;;;;;;6.83;6.40;;;18.60;34.20;;;;;;5036860;28;20442;-58
2022/03/20 09:45:55;;;;;;;7.40;6.80;;;18.60;34.30;;;;;;5039800;28;21030;-58
2022/03/20 09:48:21;;;;;;;7.10;6.50;;;18.60;35.00;;;;;;5039442;28;20498;-57
2022/03/20 09:50:49;;;;;;;6.83;6.23;;;18.70;34.30;;;;;;5044418;28;20222;-58
2022/03/20 09:53:14;;;;;;;7.23;6.53;;;18.70;34.30;;;;;;5039414;28;20254;-57
2022/03/20 09:55:40;;;;;;;9.37;6.70;;;18.70;34.30;;;;;;5039122;28;20440;-56
2022/03/20 09:58:05;;;;;;;13.60;7.30;;;18.70;34.30;;;;;;5039318;28;20330;-56
2022/03/20 10:00:32;;;;;;;11.47;6.47;;;18.70;34.20;;;;;;5040817;28;20226;-56
2022/03/20 10:02:58;;;;;;;9.23;7.83;;;18.70;34.30;;;;;;5042138;28;20227;-56
2022/03/20 10:05:28;;;;;;;18.20;8.07;;;18.80;34.40;;;;;;5041032;28;20490;-56
2022/03/20 10:08:07;;;;;;;12.67;6.97;;;18.80;34.40;;;;;;5038894;28;20227;-56
2022/03/20 10:10:32;;;;;;;13.60;7.03;;;18.80;34.40;;;;;;5037736;28;20521;-57
2022/03/20 10:12:59;;;;;;;15.77;8.00;;;18.80;34.50;;;;;;5035574;28;20933;-57
2022/03/20 10:15:35;;;;;;;9.40;6.80;;;18.80;34.60;;;;;;5042477;28;20222;-56
2022/03/20 10:18:19;;;;;;;12.40;7.00;;;18.80;34.50;;;;;;5040718;28;20437;-56
2022/03/20 10:20:46;;;;;;;15.37;6.57;;;18.80;34.50;;;;;;5038684;28;20453;-56
2022/03/20 10:23:30;;;;;;;14.63;5.90;;;18.80;34.60;;;;;;5037227;28;20440;-55
2022/03/20 10:25:56;;;;;;;10.00;6.10;;;18.80;34.50;;;;;;5040009;28;20434;-56
2022/03/20 10:28:22;;;;;;;8.03;6.83;;;18.90;34.60;;;;;;5036167;28;20496;-55
2022/03/20 10:31:02;;;;;;;6.33;5.73;;;18.90;34.60;;;;;;5039239;28;20514;-56
2022/03/20 10:33:27;;;;;;;10.80;5.97;;;18.90;34.50;;;;;;5036785;28;20318;-55
2022/03/20 10:36:08;;;;;;;6.60;6.00;;;18.90;34.50;;;;;;5039721;28;20876;-55
2022/03/20 10:38:36;;;;;;;8.63;5.70;;;18.90;34.50;;;;;;5041826;28;20222;-57
2022/03/20 10:41:14;;;;;;;5.23;4.73;;;18.90;34.50;;;;;;5035521;28;20435;-56
2022/03/20 10:43:43;;;;;;;6.50;6.00;;;19.00;34.60;;;;;;5036293;28;20494;-55
2022/03/20 10:46:16;;;;;;;6.37;5.70;;;19.00;34.60;;;;;;5042770;28;20442;-55
2022/03/20 10:48:48;;;;;;;9.90;5.13;;;19.00;34.50;;;;;;5037153;28;20435;-56
2022/03/20 10:51:13;;;;;;;5.20;4.90;;;19.00;34.60;;;;;;5036620;28;20456;-56
2022/03/20 10:53:54;;;;;;;5.97;5.40;;;19.00;34.60;;;;;;5038506;28;20455;-55
2022/03/20 10:56:20;;;;;;;5.27;4.80;;;19.00;34.60;;;;;;5042494;28;20222;-57
2022/03/20 10:58:45;;;;;;;6.50;6.00;;;19.00;34.70;;;;;;5039814;28;20449;-57
2022/03/20 11:01:12;;;;;;;5.07;4.67;;;19.00;34.80;;;;;;5040168;28;20439;-57
2022/03/20 11:03:39;;;;;;;4.97;4.67;;;18.90;34.70;;;;;;5037492;28;20227;-57
2022/03/20 11:06:09;;;;;;;6.53;5.93;;;19.00;35.70;;;;;;5038966;28;20468;-57
2022/03/20 11:08:36;;;;;;;6.50;4.80;;;18.90;34.80;;;;;;5025626;28;20431;-57
2022/03/20 11:11:03;;;;;;;12.33;5.80;;;18.90;34.80;;;;;;5042638;28;20415;-57
2022/03/20 11:13:32;;;;;;;7.50;5.40;;;18.90;34.90;;;;;;5036906;28;20446;-57
2022/03/20 11:15:59;;;;;;;5.67;5.17;;;18.90;34.90;;;;;;5040007;28;20476;-57
2022/03/20 11:18:27;;;;;;;5.77;5.17;;;18.90;35.80;;;;;;5036144;28;20448;-57
2022/03/20 11:20:53;;;;;;;5.70;5.23;;;18.90;34.90;;;;;;5046938;28;20491;-57
2022/03/20 11:23:22;;;;;;;5.63;5.13;;;18.90;35.00;;;;;;5039676;28;20782;-57
2022/03/20 11:25:48;;;;;;;6.33;5.70;;;18.90;35.00;;;;;;5041327;28;20469;-57
2022/03/20 11:28:15;;;;;;;6.37;5.77;;;18.90;35.00;;;;;;5039861;28;20447;-56
2022/03/20 11:30:44;;;;;;;10.20;6.57;;;18.90;35.00;;;;;;5037436;28;20436;-56
2022/03/20 11:33:10;;;;;;;5.57;5.17;;;18.90;35.00;;;;;;5039839;28;20887;-56
2022/03/20 11:35:38;;;;;;;6.43;5.70;;;18.90;35.00;;;;;;5037691;28;20460;-56
2022/03/20 11:38:17;;;;;;;6.27;5.67;;;18.90;35.80;;;;;;5037894;28;20430;-58
2022/03/20 11:41:07;;;;;;;6.23;5.73;;;18.90;35.00;;;;;;5038069;28;20806;-56
2022/03/20 11:43:35;;;;;;;6.07;5.57;;;18.90;35.00;;;;;;5037810;28;20514;-57
2022/03/20 11:46:34;;;;;;;6.00;5.53;;;18.90;35.00;;;;;;5037962;28;20816;-57
2022/03/20 11:49:18;;;;;;;5.90;5.50;;;18.90;35.00;;;;;;5036926;28;20504;-57
2022/03/20 11:52:09;;;;;;;6.40;5.83;;;18.90;35.00;;;;;;5035328;28;21045;-56
2022/03/20 11:54:40;;;;;;;6.23;5.60;;;18.90;35.00;;;;;;5039537;28;20455;-56
2022/03/20 11:57:24;;;;;;;7.80;5.63;;;18.90;35.10;;;;;;5036457;28;20518;-56
2022/03/20 11:59:51;;;;;;;5.87;5.30;;;18.90;35.10;;;;;;5038911;28;20448;-57
2022/03/20 12:02:18;;;;;;;6.13;5.63;;;18.90;35.10;;;;;;5035863;28;20427;-57
2022/03/20 12:05:03;;;;;;;6.20;5.70;;;18.90;35.10;;;;;;5038954;28;20489;-57
2022/03/20 12:07:55;;;;;;;6.30;5.83;;;18.90;35.10;;;;;;5034608;28;20456;-57
2022/03/20 12:10:58;;;;;;;9.93;6.23;;;18.90;35.10;;;;;;5037164;28;20494;-55
2022/03/20 12:13:27;;;;;;;6.07;5.57;;;18.90;35.10;;;;;;5035256;28;20516;-56
2022/03/20 12:15:56;;;;;;;6.73;6.20;;;18.90;35.90;;;;;;5038273;28;20522;-56
2022/03/20 12:18:21;;;;;;;6.67;6.03;;;18.80;35.10;;;;;;5038260;28;20789;-57
2022/03/20 12:21:00;;;;;;;5.13;4.83;;;18.80;35.10;;;;;;5037573;28;20425;-56
2022/03/20 12:23:40;;;;;;;8.33;6.10;;;18.90;35.10;;;;;;5035549;28;20227;-56
2022/03/20 12:26:30;;;;;;;6.60;6.10;;;18.90;35.10;;;;;;5037212;28;20471;-56
2022/03/20 12:29:38;;;;;;;6.23;5.63;;;18.90;35.10;;;;;;5036075;28;20995;-56
2022/03/20 12:32:12;;;;;;;6.60;6.00;;;18.80;35.10;;;;;;5037965;28;20975;-56
2022/03/20 12:34:39;;;;;;;6.80;5.50;;;18.80;35.10;;;;;;5032652;28;20418;-56
2022/03/20 12:40:17;;;;;;;5.73;5.33;;;18.80;35.20;;;;;;5037275;28;20791;-56
2022/03/20 12:43:10;;;;;;;6.83;6.30;;;18.80;35.20;;;;;;5024352;28;20434;-56
2022/03/20 12:45:46;;;;;;;6.57;6.07;;;18.80;35.20;;;;;;5040158;28;20463;-56
2022/03/20 12:48:14;;;;;;;6.10;5.50;;;18.80;35.20;;;;;;5033109;28;20447;-56
2022/03/20 12:50:48;;;;;;;8.33;5.90;;;18.80;35.20;;;;;;5038300;28;20432;-56
2022/03/20 12:53:21;;;;;;;6.30;5.20;;;18.80;35.20;;;;;;5038844;28;21047;-56
2022/03/20 12:55:54;;;;;;;6.40;5.80;;;18.80;35.30;;;;;;5039092;28;20426;-56
2022/03/20 12:58:20;;;;;;;7.63;6.83;;;18.80;35.20;;;;;;5035308;28;20418;-56
2022/03/20 13:00:47;;;;;;;6.80;6.20;;;18.80;35.30;;;;;;5034801;28;20835;-55
2022/03/20 13:03:16;;;;;;;6.40;5.10;;;18.80;35.30;;;;;;5038214;28;20223;-56
2022/03/20 13:05:54;;;;;;;6.30;5.80;;;18.80;35.30;;;;;;5037765;28;20877;-56
2022/03/20 13:08:26;;;;;;;6.03;5.63;;;18.80;36.10;;;;;;5034502;28;20480;-56
2022/03/20 13:10:53;;;;;;;7.17;6.43;;;18.80;35.30;;;;;;5034056;28;20447;-56
2022/03/20 13:13:23;;;;;;;6.23;5.80;;;18.80;35.30;;;;;;5035524;28;20472;-56
2022/03/20 13:15:50;;;;;;;6.40;6.00;;;18.80;35.40;;;;;;5037383;28;20990;-57
2022/03/20 13:18:16;;;;;;;7.10;6.33;;;18.80;35.40;;;;;;5037135;28;20980;-57
2022/03/20 13:20:46;;;;;;;6.17;5.63;;;18.80;35.40;;;;;;5032625;28;20789;-56
2022/03/20 13:23:13;;;;;;;5.77;5.37;;;18.80;35.40;;;;;;5040181;28;20447;-57
2022/03/20 13:25:41;;;;;;;5.90;5.50;;;18.80;35.40;;;;;;5039037;28;20852;-57
2022/03/20 13:28:07;;;;;;;5.77;5.27;;;18.80;35.40;;;;;;5039990;28;20978;-57